Time;durP1;ratioP1;P1;durP2;ratioP2;P2;SDS_P1;SDS_P2;PMS_P1;PMS_P2;Temp;Humidity;BMP_temperature;BMP_pressure;BME280_temperature;BME280_humidity;BME280_pressure;Samples;Min_cycle;Max_cycle;Signal;HPM_P1;HPM_P2
2022/03/28 00:01:33;;;;;;;21.25;7.55;;;6.30;99.90;;;;;;5050923;28;20138;-71
2022/03/28 00:03:59;;;;;;;22.35;7.82;;;6.20;99.90;;;;;;5085720;28;20127;-71
2022/03/28 00:06:25;;;;;;;22.15;8.43;;;6.20;99.90;;;;;;5084628;28;20565;-71
2022/03/28 00:08:51;;;;;;;29.20;8.77;;;6.20;99.90;;;;;;5083367;28;20043;-72
2022/03/28 00:11:18;;;;;;;59.08;10.27;;;6.20;99.90;;;;;;5081936;28;20111;-71
2022/03/28 00:13:44;;;;;;;33.38;9.93;;;6.20;99.90;;;;;;5069082;28;20156;-71
2022/03/28 00:16:10;;;;;;;31.85;10.75;;;6.20;99.90;;;;;;5084558;28;20818;-72
2022/03/28 00:18:36;;;;;;;24.48;9.32;;;6.20;99.90;;;;;;5083044;28;20160;-71
2022/03/28 00:21:02;;;;;;;61.00;12.73;;;6.20;99.90;;;;;;5085781;28;20040;-71
2022/03/28 00:23:30;;;;;;;97.05;16.85;;;6.20;99.90;;;;;;5085053;28;20044;-72
2022/03/28 00:25:56;;;;;;;65.57;16.80;;;6.20;99.90;;;;;;5085368;28;20036;-71
2022/03/28 00:28:23;;;;;;;52.90;15.57;;;6.20;99.90;;;;;;5068579;28;20051;-75
2022/03/28 00:30:53;;;;;;;57.08;17.02;;;6.20;99.90;;;;;;5069459;28;20039;-75
2022/03/28 00:33:18;;;;;;;54.88;17.30;;;6.10;99.90;;;;;;5068770;28;20517;-75
2022/03/28 00:35:44;;;;;;;39.15;16.13;;;6.20;99.90;;;;;;5085417;28;20048;-75
2022/03/28 00:38:11;;;;;;;45.92;17.65;;;6.20;99.90;;;;;;5101930;28;20497;-75
2022/03/28 00:40:38;;;;;;;133.95;23.25;;;6.20;99.90;;;;;;5085810;28;20061;-75
2022/03/28 00:43:06;;;;;;;55.97;17.42;;;6.20;99.90;;;;;;5080372;28;20410;-75
2022/03/28 00:45:34;;;;;;;54.50;19.15;;;6.20;99.90;;;;;;5067373;28;20047;-75
2022/03/28 00:48:00;;;;;;;57.80;18.02;;;6.20;99.90;;;;;;5067871;28;20059;-75
2022/03/28 00:50:28;;;;;;;65.53;18.83;;;6.30;99.90;;;;;;5067786;28;20505;-76
2022/03/28 00:52:54;;;;;;;64.93;19.60;;;6.30;99.90;;;;;;5082659;28;20501;-76
2022/03/28 00:55:20;;;;;;;85.30;20.15;;;6.30;99.90;;;;;;5067758;28;20043;-76
2022/03/28 00:57:46;;;;;;;57.03;18.13;;;6.30;99.90;;;;;;5068001;28;20321;-76
2022/03/28 01:00:13;;;;;;;57.40;18.35;;;6.30;99.90;;;;;;5064226;28;20044;-76
2022/03/28 01:02:40;;;;;;;145.85;22.13;;;6.30;99.90;;;;;;5082897;28;20071;-77
2022/03/28 01:05:06;;;;;;;84.38;21.88;;;6.30;99.90;;;;;;5084657;28;20040;-76
2022/03/28 01:07:32;;;;;;;115.05;26.30;;;6.30;99.90;;;;;;5083120;28;20140;-76
2022/03/28 01:10:01;;;;;;;54.97;23.65;;;6.30;99.90;;;;;;5067609;28;20557;-76
2022/03/28 01:12:30;;;;;;;91.40;26.13;;;6.20;99.90;;;;;;5084357;28;20440;-76
2022/03/28 01:14:58;;;;;;;94.82;30.20;;;6.20;99.90;;;;;;5084289;28;20082;-75
2022/03/28 01:20:10;;;;;;;111.65;30.75;;;6.20;99.90;;;;;;5084567;28;20051;-75
2022/03/28 01:22:37;;;;;;;104.03;28.50;;;6.20;99.90;;;;;;5081885;28;20398;-76
2022/03/28 01:25:05;;;;;;;120.97;29.10;;;6.30;99.90;;;;;;5084150;28;20437;-75
2022/03/28 01:27:32;;;;;;;126.35;27.42;;;6.20;99.90;;;;;;5067054;28;20087;-71
2022/03/28 01:30:02;;;;;;;96.78;27.90;;;6.10;99.90;;;;;;5067586;28;20069;-72
2022/03/28 01:32:28;;;;;;;108.07;31.15;;;6.10;99.90;;;;;;5067502;28;20051;-71
2022/03/28 01:34:54;;;;;;;137.80;30.02;;;6.00;99.90;;;;;;5067721;28;20113;-71
2022/03/28 01:37:19;;;;;;;110.50;30.02;;;6.10;99.90;;;;;;5066393;28;20086;-71
2022/03/28 01:39:45;;;;;;;167.50;33.10;;;6.10;99.90;;;;;;5067544;28;20108;-71
2022/03/28 01:42:11;;;;;;;124.65;31.13;;;6.10;99.90;;;;;;5067227;28;20036;-72
2022/03/28 01:44:37;;;;;;;144.90;31.20;;;6.10;99.90;;;;;;5067170;28;20101;-72
2022/03/28 01:47:03;;;;;;;63.50;29.88;;;6.10;99.90;;;;;;5084636;28;20043;-72
2022/03/28 01:49:29;;;;;;;115.30;31.63;;;6.10;99.90;;;;;;5066970;28;20127;-71
2022/03/28 01:51:54;;;;;;;145.15;31.77;;;6.20;99.90;;;;;;5071083;28;20043;-71
2022/03/28 01:54:20;;;;;;;125.18;31.02;;;6.20;99.90;;;;;;5087772;28;20100;-72
2022/03/28 01:56:46;;;;;;;127.43;30.83;;;6.20;99.90;;;;;;5054105;28;20040;-72
2022/03/28 01:59:12;;;;;;;116.18;30.92;;;6.20;99.90;;;;;;5088435;28;20104;-70
2022/03/28 02:01:38;;;;;;;158.32;34.97;;;6.20;99.90;;;;;;5072727;28;20043;-71
2022/03/28 02:04:06;;;;;;;131.55;36.33;;;6.20;99.90;;;;;;5089355;28;20083;-70
2022/03/28 02:06:33;;;;;;;202.40;41.65;;;6.20;99.90;;;;;;5087870;28;20044;-71
2022/03/28 02:08:59;;;;;;;94.47;38.75;;;6.20;99.90;;;;;;5070769;28;20143;-71
2022/03/28 02:11:24;;;;;;;173.20;43.60;;;6.30;99.90;;;;;;5087023;28;20138;-71
2022/03/28 02:13:50;;;;;;;340.42;49.67;;;6.20;99.90;;;;;;5071282;28;20050;-71
2022/03/28 02:16:16;;;;;;;238.35;49.78;;;6.20;99.90;;;;;;5070302;28;20040;-71
2022/03/28 02:18:42;;;;;;;267.15;48.22;;;6.20;99.90;;;;;;5082896;28;20040;-71
2022/03/28 02:21:07;;;;;;;205.13;45.97;;;6.20;99.90;;;;;;5070848;28;20067;-71
2022/03/28 02:23:33;;;;;;;159.18;44.70;;;6.20;99.90;;;;;;5070866;28;20055;-71
2022/03/28 02:25:59;;;;;;;273.98;46.92;;;6.10;99.90;;;;;;5081807;28;20691;-71
2022/03/28 02:28:28;;;;;;;290.17;45.10;;;6.20;99.90;;;;;;5063325;28;20062;-71
2022/03/28 02:30:54;;;;;;;203.15;41.30;;;6.20;99.90;;;;;;5053591;28;20101;-71
2022/03/28 02:33:20;;;;;;;231.57;42.65;;;6.10;99.90;;;;;;5066855;28;20143;-72
2022/03/28 02:35:46;;;;;;;224.35;42.10;;;6.10;99.90;;;;;;5066718;28;20044;-71
2022/03/28 02:38:12;;;;;;;197.32;40.72;;;6.00;99.90;;;;;;5083808;28;20180;-71
2022/03/28 02:40:38;;;;;;;102.53;37.65;;;6.00;99.90;;;;;;5067278;28;20457;-71
2022/03/28 02:43:04;;;;;;;157.60;36.15;;;5.90;99.90;;;;;;5084714;28;20047;-72
2022/03/28 02:45:32;;;;;;;203.30;40.05;;;5.90;99.90;;;;;;5079814;28;20387;-72
2022/03/28 02:48:01;;;;;;;116.47;38.50;;;5.80;99.90;;;;;;5066792;28;20036;-71
2022/03/28 02:50:28;;;;;;;128.02;39.00;;;5.90;99.90;;;;;;5066267;28;20510;-71
2022/03/28 02:52:54;;;;;;;162.90;41.72;;;5.90;99.90;;;;;;5084464;28;20151;-71
2022/03/28 02:55:21;;;;;;;74.05;34.33;;;5.90;99.90;;;;;;5049835;28;20043;-72
2022/03/28 02:57:47;;;;;;;108.75;36.45;;;5.90;99.90;;;;;;5067291;28;20734;-72
2022/03/28 03:00:13;;;;;;;112.10;34.40;;;5.90;99.90;;;;;;5066060;28;21848;-72
2022/03/28 03:02:41;;;;;;;120.55;37.42;;;6.00;99.90;;;;;;5065897;28;20036;-71
2022/03/28 03:05:09;;;;;;;124.22;38.40;;;6.00;99.90;;;;;;5042874;28;20513;-71
2022/03/28 03:07:35;;;;;;;67.88;33.35;;;6.00;99.90;;;;;;5065862;28;20178;-71
2022/03/28 03:10:02;;;;;;;56.53;33.53;;;5.90;99.90;;;;;;5083623;28;20471;-72
2022/03/28 03:12:28;;;;;;;88.68;40.47;;;5.90;99.90;;;;;;5083485;28;20044;-71
2022/03/28 03:14:53;;;;;;;85.97;38.75;;;5.90;99.90;;;;;;5067519;28;20131;-71
2022/03/28 03:17:20;;;;;;;89.28;38.58;;;5.90;99.90;;;;;;5065998;28;20622;-71
2022/03/28 03:19:45;;;;;;;127.85;43.13;;;5.90;99.90;;;;;;5083751;28;20126;-71
2022/03/28 03:22:15;;;;;;;91.45;42.80;;;5.90;99.90;;;;;;5049485;28;20051;-71
2022/03/28 03:24:42;;;;;;;94.93;41.50;;;5.90;99.90;;;;;;5066554;28;20159;-72
2022/03/28 03:27:08;;;;;;;84.82;40.00;;;5.80;99.90;;;;;;5049000;28;20682;-70
2022/03/28 03:29:35;;;;;;;84.07;40.40;;;5.90;99.90;;;;;;5082497;28;20052;-71
2022/03/28 03:32:01;;;;;;;62.38;37.08;;;5.90;99.90;;;;;;5066389;28;20036;-71
2022/03/28 03:34:27;;;;;;;63.28;35.60;;;5.90;99.90;;;;;;5067244;28;20440;-72
2022/03/28 03:36:53;;;;;;;86.68;40.47;;;5.90;99.90;;;;;;5080581;28;20047;-71
2022/03/28 03:39:21;;;;;;;109.47;41.92;;;5.90;99.90;;;;;;5066724;28;20199;-71
2022/03/28 03:41:47;;;;;;;97.47;43.72;;;6.00;99.90;;;;;;5067353;28;20048;-71
2022/03/28 03:44:12;;;;;;;96.50;42.08;;;5.90;99.90;;;;;;5083482;28;20596;-71
2022/03/28 03:46:38;;;;;;;112.40;44.53;;;5.90;99.90;;;;;;5065725;28;20051;-71
2022/03/28 03:49:04;;;;;;;93.20;42.20;;;6.00;99.90;;;;;;5066073;28;20521;-71
2022/03/28 03:51:30;;;;;;;92.07;40.42;;;5.90;99.90;;;;;;5081758;28;20072;-72
2022/03/28 03:53:59;;;;;;;85.85;40.58;;;6.00;99.90;;;;;;5049664;28;20123;-72
2022/03/28 03:56:28;;;;;;;90.13;39.45;;;6.00;99.90;;;;;;5032146;28;20036;-70
2022/03/28 03:58:54;;;;;;;72.60;38.00;;;5.90;99.90;;;;;;5066660;28;20044;-71
2022/03/28 04:01:22;;;;;;;71.95;36.85;;;5.90;99.90;;;;;;5046278;28;20108;-72
2022/03/28 04:03:48;;;;;;;92.00;41.35;;;6.00;99.90;;;;;;5067804;28;20567;-72
2022/03/28 04:06:14;;;;;;;81.15;39.28;;;5.90;99.90;;;;;;5081564;28;20040;-72
2022/03/28 04:08:40;;;;;;;64.40;34.60;;;5.90;99.90;;;;;;5083576;28;20101;-72
2022/03/28 04:11:07;;;;;;;62.88;36.45;;;5.90;99.90;;;;;;5050610;28;20044;-72
2022/03/28 04:13:34;;;;;;;78.93;38.35;;;5.80;99.90;;;;;;5083364;28;20131;-71
2022/03/28 04:16:00;;;;;;;71.80;37.60;;;5.80;99.90;;;;;;5066975;28;20044;-72
2022/03/28 04:18:27;;;;;;;74.10;37.70;;;5.80;99.90;;;;;;5049896;28;20052;-72
2022/03/28 04:20:53;;;;;;;59.17;35.45;;;5.80;99.90;;;;;;5083095;28;20516;-71
2022/03/28 04:23:20;;;;;;;61.13;35.67;;;5.70;99.90;;;;;;5066656;28;20968;-71
2022/03/28 04:25:46;;;;;;;61.78;36.83;;;5.70;99.90;;;;;;5066880;28;20095;-71
2022/03/28 04:28:12;;;;;;;60.38;36.10;;;5.70;99.90;;;;;;5067236;28;20045;-72
2022/03/28 04:30:38;;;;;;;49.97;33.38;;;5.70;99.90;;;;;;5083281;28;20059;-72
2022/03/28 04:33:07;;;;;;;48.35;31.90;;;5.60;99.90;;;;;;5084033;28;20147;-71
2022/03/28 04:35:33;;;;;;;48.72;33.28;;;5.60;99.90;;;;;;5083267;28;20394;-71
2022/03/28 04:38:00;;;;;;;57.38;37.70;;;5.60;99.90;;;;;;5047309;28;20121;-72
2022/03/28 04:40:29;;;;;;;59.08;36.72;;;5.50;99.90;;;;;;5046194;28;20507;-72
2022/03/28 04:42:54;;;;;;;54.47;37.05;;;5.60;99.90;;;;;;5030377;28;20041;-72
2022/03/28 04:45:20;;;;;;;66.80;41.25;;;5.60;99.90;;;;;;5046322;28;20055;-72
2022/03/28 04:47:46;;;;;;;58.05;37.40;;;5.60;99.90;;;;;;5046272;28;20041;-72
2022/03/28 04:50:12;;;;;;;64.32;40.03;;;5.60;99.90;;;;;;5046837;28;20091;-72
2022/03/28 04:52:37;;;;;;;58.15;38.80;;;5.50;99.90;;;;;;5062486;28;20049;-72
2022/03/28 04:55:05;;;;;;;64.03;41.45;;;5.60;99.90;;;;;;5062942;28;20045;-72
2022/03/28 04:57:31;;;;;;;71.63;43.55;;;5.50;99.90;;;;;;5045798;28;20052;-72
2022/03/28 04:59:57;;;;;;;70.05;43.28;;;5.50;99.90;;;;;;5040604;28;20078;-72
2022/03/28 05:02:23;;;;;;;71.68;45.47;;;5.50;99.90;;;;;;5055049;28;20052;-72
2022/03/28 05:04:49;;;;;;;70.53;45.30;;;5.60;99.90;;;;;;5058321;28;20072;-72
2022/03/28 05:07:29;;;;;;;72.47;45.83;;;5.60;99.90;;;;;;5039677;28;20714;-72
2022/03/28 05:10:01;;;;;;;70.75;44.58;;;5.60;99.90;;;;;;5054663;28;20673;-72
2022/03/28 05:12:27;;;;;;;76.43;47.38;;;5.60;99.90;;;;;;5059667;28;20048;-72
2022/03/28 05:14:53;;;;;;;84.30;46.97;;;5.60;99.90;;;;;;5044920;28;20061;-72
2022/03/28 05:17:29;;;;;;;73.25;45.97;;;5.60;99.90;;;;;;5045438;28;20561;-72
2022/03/28 05:19:56;;;;;;;67.15;39.55;;;5.50;99.90;;;;;;5079683;28;20051;-73
2022/03/28 05:22:22;;;;;;;60.00;36.92;;;5.60;99.90;;;;;;5055732;28;20044;-71
2022/03/28 05:24:50;;;;;;;56.40;35.28;;;5.60;99.90;;;;;;5056664;28;20399;-71
2022/03/28 05:27:16;;;;;;;59.78;34.85;;;5.60;99.90;;;;;;5065047;28;20548;-70
2022/03/28 05:29:42;;;;;;;55.20;33.78;;;5.50;99.90;;;;;;5079613;28;20056;-71
2022/03/28 05:32:09;;;;;;;61.38;35.08;;;5.40;99.90;;;;;;5081182;28;20448;-71
2022/03/28 05:34:35;;;;;;;60.45;34.33;;;5.40;99.90;;;;;;5063358;28;20055;-75
2022/03/28 05:37:04;;;;;;;64.60;35.97;;;5.50;99.90;;;;;;5060158;28;20499;-75
2022/03/28 05:39:32;;;;;;;57.85;33.83;;;5.40;99.90;;;;;;5075158;28;20036;-74
2022/03/28 05:41:58;;;;;;;65.47;36.10;;;5.40;99.90;;;;;;5078639;28;20048;-75
2022/03/28 05:44:24;;;;;;;62.10;35.00;;;5.40;99.90;;;;;;5046931;28;20032;-75
2022/03/28 05:46:51;;;;;;;55.28;33.88;;;5.40;99.90;;;;;;5063029;28;20101;-75
2022/03/28 05:49:19;;;;;;;55.45;32.88;;;5.40;99.90;;;;;;5063691;28;20070;-75
2022/03/28 05:51:46;;;;;;;67.20;32.78;;;5.40;99.90;;;;;;5061611;28;20051;-75
2022/03/28 05:54:15;;;;;;;71.75;32.67;;;5.50;99.90;;;;;;5080579;28;20495;-75
2022/03/28 05:56:41;;;;;;;68.10;31.45;;;5.50;99.90;;;;;;5047240;28;20828;-75
2022/03/28 05:59:07;;;;;;;74.20;31.60;;;5.40;99.90;;;;;;5063415;28;20044;-75
2022/03/28 06:01:34;;;;;;;81.32;35.05;;;5.40;99.90;;;;;;5057673;28;20083;-75
2022/03/28 06:04:00;;;;;;;63.25;29.33;;;5.50;99.90;;;;;;5074122;28;20141;-75
2022/03/28 06:06:26;;;;;;;61.97;29.75;;;5.50;99.90;;;;;;5054833;28;20125;-74
2022/03/28 06:08:53;;;;;;;68.20;27.23;;;5.50;99.90;;;;;;5061072;28;20036;-75
2022/03/28 06:11:19;;;;;;;44.42;24.75;;;5.50;99.90;;;;;;5059601;28;20109;-75
2022/03/28 06:13:45;;;;;;;53.00;25.85;;;5.40;99.90;;;;;;5038848;28;20163;-75
2022/03/28 06:16:11;;;;;;;51.45;25.80;;;5.40;99.90;;;;;;5059132;28;20098;-74
2022/03/28 06:18:37;;;;;;;41.13;18.83;;;5.40;99.90;;;;;;5078396;28;20052;-74
2022/03/28 06:21:03;;;;;;;33.95;17.17;;;5.40;99.90;;;;;;5058202;28;20063;-75
2022/03/28 06:23:29;;;;;;;20.77;12.40;;;5.50;99.90;;;;;;5062366;28;20083;-75
2022/03/28 06:25:55;;;;;;;22.50;12.18;;;5.50;99.90;;;;;;5063969;28;20142;-75
2022/03/28 06:28:21;;;;;;;28.65;13.43;;;5.40;99.90;;;;;;5057494;28;20048;-75
2022/03/28 06:30:48;;;;;;;16.75;10.00;;;5.40;99.90;;;;;;5057439;28;20036;-75
2022/03/28 06:33:14;;;;;;;15.85;9.80;;;5.40;99.90;;;;;;5075678;28;20143;-75
2022/03/28 06:35:40;;;;;;;16.55;9.45;;;5.40;99.90;;;;;;5060128;28;20457;-75
2022/03/28 06:38:06;;;;;;;18.67;9.70;;;5.40;99.90;;;;;;5081364;28;20612;-75
2022/03/28 06:40:32;;;;;;;15.15;9.07;;;5.30;99.90;;;;;;5078716;28;20056;-75
2022/03/28 06:42:58;;;;;;;15.98;9.73;;;5.30;99.90;;;;;;5063707;28;20044;-75
2022/03/28 06:45:24;;;;;;;14.60;8.77;;;5.30;99.90;;;;;;5063961;28;20096;-75
2022/03/28 06:47:51;;;;;;;18.63;8.75;;;5.40;99.90;;;;;;5082350;28;20858;-76
2022/03/28 06:50:19;;;;;;;13.70;7.72;;;5.40;99.90;;;;;;5064779;28;20051;-75
2022/03/28 06:52:48;;;;;;;14.23;8.07;;;5.30;99.90;;;;;;5049361;28;20789;-76
2022/03/28 06:55:14;;;;;;;14.70;7.65;;;5.20;99.90;;;;;;5049422;28;20045;-75
2022/03/28 06:57:39;;;;;;;14.77;8.40;;;5.20;99.90;;;;;;5064525;28;20051;-76
2022/03/28 07:00:07;;;;;;;15.65;8.98;;;5.30;99.90;;;;;;5066577;28;20051;-76
2022/03/28 07:02:32;;;;;;;17.50;8.60;;;5.30;99.90;;;;;;5046424;28;20123;-75
2022/03/28 07:04:58;;;;;;;12.48;7.30;;;5.40;99.90;;;;;;5080206;28;20490;-75
2022/03/28 07:07:24;;;;;;;11.77;7.32;;;5.40;99.90;;;;;;5063475;28;20806;-76
2022/03/28 07:09:50;;;;;;;13.65;8.77;;;5.40;99.90;;;;;;5077649;28;20521;-76
2022/03/28 07:12:16;;;;;;;12.90;8.45;;;5.30;99.90;;;;;;5081789;28;20036;-76
2022/03/28 07:14:43;;;;;;;13.93;8.70;;;5.30;99.90;;;;;;5062009;28;20867;-75
2022/03/28 07:17:09;;;;;;;20.23;11.40;;;5.30;99.90;;;;;;5062578;28;20074;-72
2022/03/28 07:19:38;;;;;;;19.17;11.70;;;5.40;99.90;;;;;;5077857;28;20059;-72
2022/03/28 07:22:04;;;;;;;22.38;12.68;;;5.40;99.90;;;;;;5064527;28;20105;-72
2022/03/28 07:24:30;;;;;;;21.08;13.18;;;5.40;99.90;;;;;;5040363;28;20079;-72
2022/03/28 07:26:56;;;;;;;23.50;14.18;;;5.40;99.90;;;;;;5074288;28;20040;-72
2022/03/28 07:29:22;;;;;;;21.63;12.23;;;5.40;99.90;;;;;;5067945;28;20186;-72
2022/03/28 07:31:48;;;;;;;19.17;11.23;;;5.50;99.90;;;;;;5068120;28;20036;-72
2022/03/28 07:34:30;;;;;;;20.20;11.52;;;5.50;99.90;;;;;;5086006;28;20506;-72
2022/03/28 07:36:56;;;;;;;23.95;12.98;;;5.50;99.90;;;;;;5062746;28;20808;-72
2022/03/28 07:39:23;;;;;;;26.95;15.23;;;5.60;99.90;;;;;;5067888;28;20102;-71
2022/03/28 07:41:50;;;;;;;24.90;14.43;;;5.60;99.90;;;;;;5086216;28;20032;-72
2022/03/28 07:44:16;;;;;;;26.35;14.82;;;5.60;99.90;;;;;;5084504;28;20043;-72
2022/03/28 07:46:44;;;;;;;26.67;15.13;;;5.60;99.90;;;;;;5081309;28;20086;-72
2022/03/28 07:49:11;;;;;;;34.70;18.15;;;5.60;99.90;;;;;;5079062;28;20079;-72
2022/03/28 07:51:37;;;;;;;37.35;18.50;;;5.70;99.90;;;;;;5051397;28;20043;-72
2022/03/28 07:54:03;;;;;;;35.20;17.65;;;5.70;99.90;;;;;;5084763;28;20103;-72
2022/03/28 07:56:28;;;;;;;34.53;18.88;;;5.70;99.90;;;;;;5101577;28;20386;-71
2022/03/28 07:58:55;;;;;;;33.30;17.85;;;5.70;99.90;;;;;;5069083;28;20047;-71
2022/03/28 08:01:21;;;;;;;33.03;18.23;;;5.80;99.90;;;;;;5048291;28;20112;-71
2022/03/28 08:03:46;;;;;;;33.03;19.17;;;5.80;99.90;;;;;;5073733;28;20044;-72
2022/03/28 08:06:12;;;;;;;35.72;19.10;;;5.80;99.90;;;;;;5068727;28;20074;-72
2022/03/28 08:08:38;;;;;;;37.90;20.08;;;5.80;99.90;;;;;;5068675;28;20051;-72
2022/03/28 08:11:08;;;;;;;39.88;21.88;;;5.80;99.90;;;;;;5067580;28;20043;-72
2022/03/28 08:13:34;;;;;;;43.22;21.65;;;5.80;99.90;;;;;;5068377;28;20066;-72
2022/03/28 08:16:00;;;;;;;52.22;24.00;;;5.90;99.90;;;;;;5064023;28;20040;-72
2022/03/28 08:18:26;;;;;;;32.55;19.67;;;5.90;99.90;;;;;;5065793;28;20066;-71
2022/03/28 08:20:53;;;;;;;35.53;20.45;;;5.90;99.90;;;;;;5056330;28;20078;-71
2022/03/28 08:23:20;;;;;;;39.17;22.05;;;5.90;99.90;;;;;;5082911;28;20085;-71
2022/03/28 08:25:50;;;;;;;41.60;21.85;;;6.00;99.90;;;;;;5077955;27;20032;-71
2022/03/28 08:28:17;;;;;;;33.72;20.45;;;6.00;99.90;;;;;;5079696;28;20052;-71
2022/03/28 08:30:43;;;;;;;38.63;21.60;;;6.00;99.90;;;;;;5084001;28;20048;-71
2022/03/28 08:33:09;;;;;;;36.08;20.85;;;6.00;99.90;;;;;;5066239;28;20096;-71
2022/03/28 08:35:35;;;;;;;37.55;19.80;;;6.00;99.90;;;;;;5066344;28;20049;-71
2022/03/28 08:38:01;;;;;;;35.42;19.92;;;6.00;99.90;;;;;;5079504;28;20123;-71
2022/03/28 08:40:27;;;;;;;29.70;18.80;;;6.00;99.90;;;;;;5061233;28;20119;-71
2022/03/28 08:42:53;;;;;;;31.65;19.38;;;6.10;99.90;;;;;;5064174;28;20035;-71
2022/03/28 08:45:20;;;;;;;35.55;20.23;;;6.10;99.90;;;;;;5078620;28;20051;-71
2022/03/28 08:47:48;;;;;;;40.88;20.77;;;6.10;99.90;;;;;;5077373;28;20211;-71
2022/03/28 08:50:15;;;;;;;36.08;20.55;;;6.20;99.90;;;;;;5080867;28;20109;-71
2022/03/28 08:52:42;;;;;;;34.80;19.85;;;6.20;99.90;;;;;;5077412;28;20044;-71
2022/03/28 08:55:12;;;;;;;26.65;17.02;;;6.10;99.90;;;;;;5058675;28;20035;-71
2022/03/28 08:57:38;;;;;;;31.73;18.63;;;6.10;99.90;;;;;;5072391;28;20189;-71
2022/03/28 09:00:06;;;;;;;24.73;16.38;;;6.20;99.90;;;;;;5074781;28;20082;-71
2022/03/28 09:02:46;;;;;;;25.48;18.17;;;6.30;99.90;;;;;;5057720;28;20082;-71
2022/03/28 09:05:14;;;;;;;25.50;16.80;;;6.30;99.90;;;;;;5073993;28;20083;-71
2022/03/28 09:07:40;;;;;;;24.23;15.85;;;6.30;99.90;;;;;;5057026;28;20077;-70
2022/03/28 09:10:12;;;;;;;29.42;18.35;;;6.30;99.90;;;;;;5058265;28;20482;-72
2022/03/28 09:13:16;;;;;;;26.40;18.13;;;6.30;99.90;;;;;;5081217;28;20052;-70
2022/03/28 09:15:55;;;;;;;25.98;16.83;;;6.30;99.90;;;;;;5060393;28;20081;-71
2022/03/28 09:18:32;;;;;;;27.90;18.80;;;6.40;99.90;;;;;;5078317;28;20054;-72
2022/03/28 09:20:59;;;;;;;26.55;18.27;;;6.40;99.90;;;;;;5062264;28;20052;-72
2022/03/28 09:23:34;;;;;;;28.10;18.27;;;6.40;99.90;;;;;;5058079;28;20051;-72
2022/03/28 09:26:06;;;;;;;23.33;16.75;;;6.50;99.90;;;;;;5059888;28;20693;-71
2022/03/28 09:29:01;;;;;;;23.50;17.40;;;6.60;99.90;;;;;;5058381;28;20051;-71
2022/03/28 09:31:39;;;;;;;25.65;18.45;;;6.60;99.90;;;;;;5072745;28;20484;-72
2022/03/28 09:34:23;;;;;;;28.85;19.48;;;6.60;99.90;;;;;;5071449;28;20136;-72
2022/03/28 09:36:51;;;;;;;25.23;18.38;;;6.70;99.90;;;;;;5063640;28;20130;-72
2022/03/28 09:39:18;;;;;;;25.58;18.10;;;6.70;99.90;;;;;;5079261;28;20148;-72
2022/03/28 09:41:59;;;;;;;25.92;18.63;;;6.70;99.90;;;;;;5082832;28;20512;-72
2022/03/28 09:44:34;;;;;;;25.77;17.85;;;6.80;99.90;;;;;;5082178;28;20127;-72
2022/03/28 09:47:22;;;;;;;27.02;20.23;;;6.80;99.90;;;;;;5083412;28;20291;-72
2022/03/28 09:49:51;;;;;;;26.95;18.42;;;6.80;99.90;;;;;;5081295;28;20460;-72
2022/03/28 09:52:22;;;;;;;25.40;19.38;;;6.80;99.90;;;;;;5115582;28;20046;-72
2022/03/28 09:54:56;;;;;;;30.42;22.15;;;6.80;99.90;;;;;;5111565;28;20506;-72
2022/03/28 09:57:31;;;;;;;28.73;20.38;;;6.90;99.90;;;;;;5081599;28;20405;-72
2022/03/28 10:00:17;;;;;;;27.85;20.40;;;6.90;99.90;;;;;;5077734;28;20051;-72
2022/03/28 10:02:47;;;;;;;27.58;20.50;;;6.90;99.90;;;;;;5076885;28;20127;-72
2022/03/28 10:05:13;;;;;;;27.85;20.25;;;7.00;99.90;;;;;;5064853;28;20043;-72
2022/03/28 10:07:42;;;;;;;26.40;19.90;;;7.00;99.90;;;;;;5059990;28;20043;-72
2022/03/28 10:10:08;;;;;;;27.45;22.00;;;7.10;99.90;;;;;;5082446;28;20043;-72
2022/03/28 10:12:34;;;;;;;31.42;21.80;;;7.20;99.90;;;;;;5087917;28;20058;-72
2022/03/28 10:15:01;;;;;;;26.50;19.80;;;7.20;99.90;;;;;;5087917;28;20036;-72
2022/03/28 10:17:29;;;;;;;27.30;19.73;;;7.20;99.90;;;;;;5081221;28;20051;-72
2022/03/28 10:19:55;;;;;;;24.02;18.60;;;7.20;99.90;;;;;;5062727;28;20047;-72
2022/03/28 10:22:37;;;;;;;23.70;19.05;;;7.20;99.90;;;;;;5097642;28;20051;-72
2022/03/28 10:25:08;;;;;;;25.95;21.05;;;7.30;99.90;;;;;;5085300;28;20804;-74
2022/03/28 10:27:36;;;;;;;30.70;21.33;;;7.30;99.90;;;;;;5063527;28;20059;-74
2022/03/28 10:30:27;;;;;;;24.48;19.15;;;7.30;99.90;;;;;;5084621;28;20059;-75
2022/03/28 10:33:10;;;;;;;25.20;20.15;;;7.40;99.90;;;;;;5070674;28;20056;-74
2022/03/28 10:35:37;;;;;;;25.58;20.10;;;7.40;99.90;;;;;;5071512;28;20509;-75
2022/03/28 10:38:21;;;;;;;25.02;20.67;;;7.40;99.90;;;;;;5088526;28;20043;-75
2022/03/28 10:41:07;;;;;;;29.85;21.77;;;7.50;99.90;;;;;;5073702;28;20043;-75
2022/03/28 10:43:35;;;;;;;28.70;22.33;;;7.60;99.90;;;;;;5096739;28;20134;-75
2022/03/28 10:46:09;;;;;;;26.88;21.00;;;7.60;99.90;;;;;;5119678;27;20071;-75
2022/03/28 10:48:47;;;;;;;27.23;21.30;;;7.60;99.90;;;;;;5077748;28;20055;-75
2022/03/28 10:51:31;;;;;;;25.83;21.67;;;7.70;99.90;;;;;;5079416;28;20047;-75
2022/03/28 10:54:04;;;;;;;25.95;20.80;;;7.80;99.90;;;;;;5114561;27;20054;-75
2022/03/28 10:56:38;;;;;;;26.60;20.20;;;7.80;99.90;;;;;;5060309;28;20045;-75
2022/03/28 10:59:12;;;;;;;28.25;22.20;;;7.90;99.90;;;;;;5097052;28;20055;-75
2022/03/28 11:01:42;;;;;;;24.10;19.85;;;7.90;99.90;;;;;;5069130;28;20047;-75
2022/03/28 11:04:18;;;;;;;28.10;21.27;;;8.00;99.90;;;;;;5083014;28;20078;-75
2022/03/28 11:07:04;;;;;;;24.15;20.17;;;8.00;99.90;;;;;;5095896;28;20395;-75
2022/03/28 11:09:50;;;;;;;25.35;20.35;;;8.10;99.90;;;;;;5080501;28;20063;-75
2022/03/28 11:12:39;;;;;;;23.80;19.90;;;8.10;99.90;;;;;;5077116;28;20345;-75
2022/03/28 11:15:20;;;;;;;23.00;20.40;;;8.20;99.90;;;;;;5100458;28;20081;-75
2022/03/28 11:18:02;;;;;;;25.25;20.13;;;8.30;99.90;;;;;;5084620;28;20719;-75
2022/03/28 11:20:46;;;;;;;24.92;20.13;;;8.40;99.90;;;;;;5083164;28;20046;-76
2022/03/28 11:23:15;;;;;;;23.63;18.63;;;8.40;99.90;;;;;;5068086;28;20040;-75
2022/03/28 11:25:58;;;;;;;21.40;18.55;;;8.50;99.90;;;;;;5067364;28;20047;-74
2022/03/28 11:28:26;;;;;;;22.08;19.63;;;8.60;99.90;;;;;;5068017;28;20089;-72
2022/03/28 11:30:55;;;;;;;20.15;17.92;;;8.70;99.90;;;;;;5077721;28;20055;-71
2022/03/28 11:33:29;;;;;;;18.58;16.50;;;8.90;99.90;;;;;;5072265;28;20051;-71
2022/03/28 11:35:59;;;;;;;17.67;15.88;;;8.90;99.90;;;;;;5072283;28;20058;-71
2022/03/28 11:38:27;;;;;;;18.20;16.30;;;9.00;99.90;;;;;;5073832;28;20801;-71
2022/03/28 11:40:53;;;;;;;19.10;16.80;;;9.10;99.90;;;;;;5078051;28;20073;-71
2022/03/28 11:43:31;;;;;;;18.08;16.17;;;9.10;99.90;;;;;;5065876;28;20075;-72
2022/03/28 11:45:58;;;;;;;17.45;15.52;;;9.10;99.90;;;;;;5087024;28;20093;-72
2022/03/28 11:48:23;;;;;;;18.10;16.20;;;9.10;99.90;;;;;;5069633;28;20059;-71
2022/03/28 11:50:50;;;;;;;19.88;16.30;;;9.30;99.90;;;;;;5086404;28;20440;-72
2022/03/28 11:53:18;;;;;;;18.05;15.00;;;9.60;99.90;;;;;;5086238;28;20704;-71
2022/03/28 11:55:56;;;;;;;18.17;15.10;;;9.90;99.90;;;;;;5065763;28;20078;-75
2022/03/28 11:58:33;;;;;;;18.13;15.63;;;10.10;99.90;;;;;;5083888;28;20062;-75
2022/03/28 12:01:10;;;;;;;17.17;15.48;;;10.10;99.90;;;;;;5066223;28;20047;-75
2022/03/28 12:03:50;;;;;;;19.67;17.58;;;10.10;99.90;;;;;;5094161;28;20081;-75
2022/03/28 12:06:46;;;;;;;17.77;15.95;;;10.10;99.90;;;;;;5062176;28;20031;-75
2022/03/28 12:09:16;;;;;;;18.67;16.15;;;10.00;99.90;;;;;;5068557;28;20048;-75
2022/03/28 12:11:47;;;;;;;;;;;10.00;99.90;;;;;;5070140;28;20129;-75
2022/03/28 12:14:14;;;;;;;16.75;14.90;;;10.10;99.90;;;;;;5087887;28;20763;-75
2022/03/28 12:16:48;;;;;;;18.13;16.08;;;10.50;99.90;;;;;;5053017;28;20096;-75
2022/03/28 12:19:19;;;;;;;16.90;15.00;;;10.80;99.90;;;;;;5069558;28;20112;-75
2022/03/28 12:21:45;;;;;;;17.17;15.38;;;11.10;99.90;;;;;;5064310;28;20047;-75
2022/03/28 12:24:11;;;;;;;18.38;14.45;;;11.30;99.90;;;;;;5084677;28;20036;-75
2022/03/28 12:26:50;;;;;;;16.60;14.45;;;11.50;99.90;;;;;;5064535;28;20058;-75
2022/03/28 12:29:16;;;;;;;16.77;14.95;;;11.50;99.90;;;;;;5119942;27;20320;-75
2022/03/28 12:31:48;;;;;;;16.50;14.80;;;11.50;99.90;;;;;;5100152;28;20375;-75
2022/03/28 12:34:17;;;;;;;15.60;14.00;;;11.60;99.90;;;;;;5080178;28;20086;-75
2022/03/28 12:36:43;;;;;;;16.02;14.07;;;11.60;99.90;;;;;;5063335;28;20100;-76
2022/03/28 12:39:10;;;;;;;16.13;14.30;;;11.60;99.90;;;;;;5068704;28;20056;-75
2022/03/28 12:41:47;;;;;;;15.15;13.55;;;11.70;99.90;;;;;;5068923;28;20087;-75
2022/03/28 12:44:19;;;;;;;15.35;13.75;;;11.80;99.90;;;;;;5070061;28;20514;-75
2022/03/28 12:46:45;;;;;;;17.20;14.05;;;11.90;99.90;;;;;;5069334;28;20043;-75